Time;durP1;ratioP1;P1;durP2;ratioP2;P2;SDS_P1;SDS_P2;PMS_P1;PMS_P2;Temp;Humidity;BMP_temperature;BMP_pressure;BME280_temperature;BME280_humidity;BME280_pressure;Samples;Min_cycle;Max_cycle;Signal;HPM_P1;HPM_P2
2023/09/15 00:02:08;;;;;;;;;;;12.90;99.90;;;;;;4996745;28;20330;-42
2023/09/15 00:04:34;;;;;;;;;;;12.80;99.90;;;;;;4996988;28;19922;-43
2023/09/15 00:06:59;;;;;;;;;;;12.80;99.90;;;;;;4996872;28;20370;-42
2023/09/15 00:09:25;;;;;;;;;;;12.80;99.90;;;;;;4993682;28;20363;-42
2023/09/15 00:11:54;;;;;;;;;;;12.80;99.90;;;;;;4996304;28;20387;-42
2023/09/15 00:14:21;;;;;;;;;;;12.80;99.90;;;;;;4996415;28;20041;-43
2023/09/15 00:16:47;;;;;;;;;;;12.80;99.90;;;;;;4996591;28;20342;-42
2023/09/15 00:19:15;;;;;;;;;;;12.80;99.90;;;;;;5011967;28;19921;-43
2023/09/15 00:21:42;;;;;;;;;;;12.80;99.90;;;;;;4996463;28;19934;-43
2023/09/15 00:24:07;;;;;;;;;;;12.80;99.90;;;;;;4996362;28;19921;-42
2023/09/15 00:26:33;;;;;;;;;;;12.80;99.90;;;;;;4996385;28;20286;-42
2023/09/15 00:28:59;;;;;;;;;;;12.70;99.90;;;;;;5011577;28;19972;-42
2023/09/15 00:31:25;;;;;;;;;;;12.70;99.90;;;;;;4996451;28;19929;-42
2023/09/15 00:33:51;;;;;;;;;;;12.70;99.90;;;;;;4996010;28;19928;-42
2023/09/15 00:36:16;;;;;;;;;;;12.60;99.90;;;;;;4996204;28;19922;-42
2023/09/15 00:38:42;;;;;;;;;;;12.60;99.90;;;;;;4996070;28;19921;-43
2023/09/15 00:41:08;;;;;;;;;;;12.60;99.90;;;;;;4996097;28;19938;-42
2023/09/15 00:43:33;;;;;;;;;;;12.50;99.90;;;;;;4995995;28;20366;-42
2023/09/15 00:45:59;;;;;;;;;;;12.50;99.90;;;;;;5011358;28;19932;-43
2023/09/15 00:48:25;;;;;;;;;;;12.40;99.90;;;;;;4995880;28;20426;-43
2023/09/15 00:50:51;;;;;;;;;;;12.40;99.90;;;;;;4995870;28;19925;-42
2023/09/15 00:53:19;;;;;;;;;;;12.30;99.90;;;;;;4978308;28;20458;-42
2023/09/15 00:55:47;;;;;;;;;;;12.30;99.90;;;;;;4978857;28;20374;-42
2023/09/15 00:58:15;;;;;;;;;;;12.30;99.90;;;;;;4995805;28;19928;-42
2023/09/15 01:00:44;;;;;;;;;;;12.30;99.90;;;;;;4995807;28;19921;-42
2023/09/15 01:03:11;;;;;;;;;;;12.30;99.90;;;;;;4995670;28;19926;-42
2023/09/15 01:05:38;;;;;;;;;;;12.30;99.90;;;;;;4995668;28;19921;-43
2023/09/15 01:08:04;;;;;;;;;;;12.30;99.90;;;;;;4995374;28;19921;-44
2023/09/15 01:10:29;;;;;;;;;;;12.30;99.90;;;;;;4978362;28;20329;-44
2023/09/15 01:12:55;;;;;;;;;;;12.20;99.90;;;;;;4962188;28;19926;-43
2023/09/15 01:15:34;;;;;;;;;;;12.20;99.90;;;;;;4978202;28;20402;-43
2023/09/15 01:18:02;;;;;;;;;;;12.10;99.90;;;;;;4995193;28;20068;-43
2023/09/15 01:20:42;;;;;;;;;;;12.10;99.90;;;;;;4995018;28;19922;-42
2023/09/15 01:23:14;;;;;;;;;;;12.10;99.90;;;;;;4978686;28;20290;-42
2023/09/15 01:25:52;;;;;;;;;;;12.00;99.90;;;;;;4978322;28;19925;-43
2023/09/15 01:28:26;;;;;;;;;;;12.00;99.90;;;;;;4994967;28;19922;-42
2023/09/15 01:30:52;;;;;;;;;;;12.00;99.90;;;;;;4995031;28;19922;-43
2023/09/15 01:33:18;;;;;;;;;;;12.00;99.90;;;;;;4995295;28;20371;-43
2023/09/15 01:35:44;;;;;;;;;;;12.00;99.90;;;;;;4977925;28;19922;-43
2023/09/15 01:38:09;;;;;;;;;;;11.90;99.90;;;;;;4995020;28;20326;-43
2023/09/15 01:40:35;;;;;;;;;;;11.90;99.90;;;;;;4995037;28;19944;-43
2023/09/15 01:43:00;;;;;;;;;;;11.90;99.90;;;;;;4995059;28;19922;-42
2023/09/15 01:45:26;;;;;;;;;;;11.90;99.90;;;;;;4994736;28;20294;-43
2023/09/15 01:47:52;;;;;;;;;;;11.90;99.90;;;;;;4994913;28;19945;-42
2023/09/15 01:50:18;;;;;;;;;;;11.90;99.90;;;;;;4994899;28;20012;-43
2023/09/15 01:52:44;;;;;;;;;;;11.90;99.90;;;;;;4977683;28;19975;-43
2023/09/15 01:55:10;;;;;;;;;;;11.90;99.90;;;;;;4994790;28;19921;-43
2023/09/15 01:57:36;;;;;;;;;;;11.90;99.90;;;;;;4994622;28;19976;-43
2023/09/15 02:00:02;;;;;;;;;;;11.80;99.90;;;;;;4994481;28;20314;-42
2023/09/15 02:02:27;;;;;;;;;;;11.80;99.90;;;;;;4994562;28;19922;-42
2023/09/15 02:04:53;;;;;;;;;;;11.90;99.90;;;;;;4995017;28;19926;-43
2023/09/15 02:07:19;;;;;;;;;;;11.90;99.90;;;;;;4977419;28;20290;-42
2023/09/15 02:09:44;;;;;;;;;;;11.80;99.90;;;;;;4992339;28;19928;-43
2023/09/15 02:12:10;;;;;;;;;;;11.80;99.90;;;;;;4994567;28;19928;-43
2023/09/15 02:14:35;;;;;;;;;;;11.80;99.90;;;;;;4994305;28;20401;-43
2023/09/15 02:17:01;;;;;;;;;;;11.80;99.90;;;;;;4994695;28;19922;-45
2023/09/15 02:19:27;;;;;;;;;;;11.80;99.90;;;;;;4994554;28;20442;-42
2023/09/15 02:21:53;;;;;;;;;;;11.80;99.90;;;;;;4994549;28;20359;-43
2023/09/15 02:24:18;;;;;;;;;;;11.80;99.90;;;;;;4994436;28;19929;-44
2023/09/15 02:26:44;;;;;;;;;;;11.90;99.90;;;;;;4994463;28;19922;-43
2023/09/15 02:29:09;;;;;;;;;;;11.80;99.90;;;;;;4994392;28;19922;-43
2023/09/15 02:31:35;;;;;;;;;;;11.80;99.90;;;;;;4994313;28;19921;-43
2023/09/15 02:34:00;;;;;;;;;;;11.80;99.90;;;;;;4998865;28;19929;-42
2023/09/15 02:36:26;;;;;;;;;;;11.70;99.90;;;;;;4998417;28;19952;-43
2023/09/15 02:38:54;;;;;;;;;;;11.70;99.90;;;;;;4998245;28;19922;-42
2023/09/15 02:41:20;;;;;;;;;;;11.70;99.90;;;;;;4998102;28;20008;-43
2023/09/15 02:43:46;;;;;;;;;;;11.60;99.90;;;;;;4998082;28;19971;-43
2023/09/15 02:46:11;;;;;;;;;;;11.60;99.90;;;;;;4981135;28;20408;-42
2023/09/15 02:48:37;;;;;;;;;;;11.60;99.90;;;;;;4998169;28;19960;-42
2023/09/15 02:51:04;;;;;;;;;;;11.60;99.90;;;;;;4998083;28;20271;-42
2023/09/15 02:53:30;;;;;;;;;;;11.60;99.90;;;;;;4997799;28;20333;-42
2023/09/15 02:55:59;;;;;;;;;;;11.60;99.90;;;;;;4996904;28;19922;-43
2023/09/15 02:58:26;;;;;;;;;;;11.60;99.90;;;;;;4980220;28;20358;-42
2023/09/15 03:00:52;;;;;;;;;;;11.50;99.90;;;;;;4997754;28;20052;-43
2023/09/15 03:03:17;;;;;;;;;;;11.50;99.90;;;;;;4997581;28;20430;-42
2023/09/15 03:05:43;;;;;;;;;;;11.40;99.90;;;;;;4997728;28;19928;-42
2023/09/15 03:08:09;;;;;;;;;;;11.40;99.90;;;;;;4997632;28;20389;-42
2023/09/15 03:10:34;;;;;;;;;;;11.40;99.90;;;;;;4997539;28;20282;-42
2023/09/15 03:13:02;;;;;;;;;;;11.40;99.90;;;;;;4997541;28;19926;-42
2023/09/15 03:15:28;;;;;;;;;;;11.40;99.90;;;;;;4997755;28;19956;-42
2023/09/15 03:17:53;;;;;;;;;;;11.40;99.90;;;;;;4997480;28;20015;-42
2023/09/15 03:20:20;;;;;;;;;;;11.40;99.90;;;;;;4997421;28;19925;-42
2023/09/15 03:22:47;;;;;;;;;;;11.40;99.90;;;;;;4997374;28;19922;-42
2023/09/15 03:25:13;;;;;;;;;;;11.40;99.90;;;;;;4997723;28;19928;-42
2023/09/15 03:27:39;;;;;;;;;;;11.40;99.90;;;;;;4997401;28;19933;-42
2023/09/15 03:30:06;;;;;;;;;;;11.30;99.90;;;;;;4997450;28;19921;-42
2023/09/15 03:32:32;;;;;;;;;;;11.30;99.90;;;;;;4997427;28;19960;-42
2023/09/15 03:34:57;;;;;;;;;;;11.30;99.90;;;;;;4997253;28;19921;-42
2023/09/15 03:37:23;;;;;;;;;;;11.30;99.90;;;;;;4997285;28;20271;-42
2023/09/15 03:39:49;;;;;;;;;;;11.20;99.90;;;;;;4997158;28;19932;-43
2023/09/15 03:42:15;;;;;;;;;;;11.20;99.90;;;;;;4997075;28;20367;-42
2023/09/15 03:44:40;;;;;;;;;;;11.20;99.90;;;;;;4997117;28;19921;-42
2023/09/15 03:47:06;;;;;;;;;;;11.20;99.90;;;;;;4997412;28;20382;-43
2023/09/15 03:49:33;;;;;;;;;;;11.20;99.90;;;;;;4997132;28;20274;-42
2023/09/15 03:51:59;;;;;;;;;;;11.20;99.90;;;;;;4997049;28;20378;-43
2023/09/15 03:54:26;;;;;;;;;;;11.20;99.90;;;;;;4996781;28;19922;-42
2023/09/15 03:56:51;;;;;;;;;;;11.10;99.90;;;;;;4979617;28;19922;-42
2023/09/15 03:59:17;;;;;;;;;;;11.10;99.90;;;;;;5012020;28;19929;-42
2023/09/15 04:01:42;;;;;;;;;;;11.10;99.90;;;;;;5012004;28;19964;-42
2023/09/15 04:04:08;;;;;;;;;;;11.10;99.90;;;;;;4996834;28;19922;-42
2023/09/15 04:06:35;;;;;;;;;;;11.10;99.90;;;;;;4996788;28;19922;-43
2023/09/15 04:09:04;;;;;;;;;;;11.10;99.90;;;;;;4975871;28;19926;-42
2023/09/15 04:11:32;;;;;;;;;;;11.10;99.90;;;;;;4977113;28;19922;-43
2023/09/15 04:13:57;;;;;;;;;;;11.00;99.90;;;;;;5008962;28;19922;-42
2023/09/15 04:16:23;;;;;;;;;;;11.00;99.90;;;;;;4977199;28;19945;-42
2023/09/15 04:18:48;;;;;;;;;;;11.00;99.90;;;;;;4977121;28;19926;-42
2023/09/15 04:21:14;;;;;;;;;;;11.00;99.90;;;;;;4977082;28;19922;-42
2023/09/15 04:23:39;;;;;;;;;;;11.00;99.90;;;;;;4976154;28;20016;-42
2023/09/15 04:26:05;;;;;;;;;;;11.00;99.90;;;;;;4976934;28;19926;-42
2023/09/15 04:28:30;;;;;;;;;;;11.00;99.90;;;;;;4976919;28;19922;-43
2023/09/15 04:30:56;;;;;;;;;;;11.00;99.90;;;;;;4976914;28;19929;-43
2023/09/15 04:33:23;;;;;;;;;;;11.00;99.90;;;;;;4976733;28;20019;-42
2023/09/15 04:35:48;;;;;;;;;;;11.00;99.90;;;;;;4976730;28;20371;-42
2023/09/15 04:38:14;;;;;;;;;;;11.00;99.90;;;;;;4976560;28;19922;-42
2023/09/15 04:40:40;;;;;;;;;;;11.00;99.90;;;;;;4976581;28;20017;-42
2023/09/15 04:43:05;;;;;;;;;;;11.00;99.90;;;;;;4976694;28;19922;-42
2023/09/15 04:45:31;;;;;;;;;;;11.00;99.90;;;;;;4975680;28;19976;-43
2023/09/15 04:47:56;;;;;;;;;;;10.90;99.90;;;;;;4975420;28;19929;-42
2023/09/15 04:50:22;;;;;;;;;;;10.90;99.90;;;;;;4976510;28;19929;-42
2023/09/15 04:52:48;;;;;;;;;;;10.90;99.90;;;;;;4976520;28;19929;-43
2023/09/15 04:55:13;;;;;;;;;;;10.80;99.90;;;;;;4975641;28;19922;-42
2023/09/15 04:57:39;;;;;;;;;;;10.80;99.90;;;;;;4975474;28;20009;-42
2023/09/15 05:00:12;;;;;;;;;;;10.80;99.90;;;;;;4976560;28;19922;-42
2023/09/15 05:02:42;;;;;;;;;;;10.80;99.90;;;;;;4976353;28;19929;-43
2023/09/15 05:05:08;;;;;;;;;;;10.80;99.90;;;;;;4976247;28;20020;-43
2023/09/15 05:07:33;;;;;;;;;;;10.70;99.90;;;;;;4976186;28;20027;-42
2023/09/15 05:09:59;;;;;;;;;;;10.70;99.90;;;;;;4991514;28;19925;-43
2023/09/15 05:12:24;;;;;;;;;;;10.70;99.90;;;;;;4995545;28;19922;-44
2023/09/15 05:14:50;;;;;;;;;;;10.70;99.90;;;;;;4995719;28;19928;-42
2023/09/15 05:17:15;;;;;;;;;;;10.70;99.90;;;;;;4995330;28;20362;-42
2023/09/15 05:19:41;;;;;;;;;;;10.70;99.90;;;;;;4995402;28;20367;-42
2023/09/15 05:22:07;;;;;;;;;;;10.70;99.90;;;;;;5010658;28;20363;-42
2023/09/15 05:24:33;;;;;;;;;;;10.70;99.90;;;;;;4995159;28;19969;-42
2023/09/15 05:26:58;;;;;;;;;;;10.70;99.90;;;;;;4995249;28;20354;-42
2023/09/15 05:29:24;;;;;;;;;;;10.70;99.90;;;;;;4995176;28;20363;-42
2023/09/15 05:31:49;;;;;;;;;;;10.70;99.90;;;;;;4995015;28;20000;-42
2023/09/15 05:34:15;;;;;;;;;;;10.70;99.90;;;;;;4994934;28;19921;-42
2023/09/15 05:36:41;;;;;;;;;;;10.70;99.90;;;;;;5010203;28;19926;-42
2023/09/15 05:39:07;;;;;;;;;;;10.70;99.90;;;;;;4994920;28;19925;-42
2023/09/15 05:41:32;;;;;;;;;;;10.70;99.90;;;;;;4995085;28;19922;-43
2023/09/15 05:43:58;;;;;;;;;;;10.70;99.90;;;;;;4994951;28;20362;-42
2023/09/15 05:46:24;;;;;;;;;;;10.70;99.90;;;;;;4994887;28;19922;-42
2023/09/15 05:48:49;;;;;;;;;;;10.70;99.90;;;;;;5010401;28;19968;-43
2023/09/15 05:51:15;;;;;;;;;;;10.70;99.90;;;;;;5010323;28;19922;-43
2023/09/15 05:53:40;;;;;;;;;;;10.70;99.90;;;;;;4994440;28;19929;-42
2023/09/15 05:56:06;;;;;;;;;;;10.80;99.90;;;;;;4994460;28;19976;-42
2023/09/15 05:58:31;;;;;;;;;;;10.80;99.90;;;;;;4994795;28;19929;-42
2023/09/15 06:00:57;;;;;;;;;;;10.80;99.90;;;;;;4994709;28;19922;-42
2023/09/15 06:03:23;;;;;;;;;;;10.90;99.90;;;;;;4994669;28;19922;-42
2023/09/15 06:05:49;;;;;;;;;;;10.90;99.90;;;;;;4994492;28;19948;-42
2023/09/15 06:08:14;;;;;;;;;;;10.90;99.90;;;;;;4992337;28;19922;-42
2023/09/15 06:10:40;;;;;;;;;;;11.00;99.90;;;;;;4985681;28;19995;-43
2023/09/15 06:13:06;;;;;;;;;;;11.00;99.90;;;;;;4994480;28;19928;-43
2023/09/15 06:15:33;;;;;;;;;;;11.00;99.90;;;;;;4994500;28;20020;-42
2023/09/15 06:18:00;;;;;;;;;;;11.00;99.90;;;;;;4977755;28;19996;-42
2023/09/15 06:20:26;;;;;;;;;;;11.00;99.90;;;;;;4994684;28;20291;-42
2023/09/15 06:22:52;;;;;;;;;;;11.10;99.90;;;;;;4994385;28;20295;-42
2023/09/15 06:25:17;;;;;;;;;;;11.20;99.90;;;;;;4994499;28;19925;-42
2023/09/15 06:27:43;;;;;;;;;;;11.20;99.90;;;;;;4994442;28;19922;-42
2023/09/15 06:30:09;;;;;;;;;;;11.20;99.90;;;;;;4994511;28;19929;-42
2023/09/15 06:32:34;;;;;;;;;;;11.30;99.90;;;;;;4977139;28;20020;-42
2023/09/15 06:35:00;;;;;;;;;;;11.30;99.90;;;;;;4994406;28;19976;-42
2023/09/15 06:37:25;;;;;;;;;;;11.40;99.90;;;;;;4994360;28;19922;-42
2023/09/15 06:39:51;;;;;;;;;;;11.40;99.90;;;;;;4994471;28;19926;-42
2023/09/15 06:42:16;;;;;;;;;;;11.50;99.90;;;;;;4994401;28;20398;-42
2023/09/15 06:44:42;;;;;;;;;;;11.60;99.90;;;;;;4994404;28;20282;-42
2023/09/15 06:47:08;;;;;;;;;;;11.70;99.90;;;;;;4994356;28;19944;-42
2023/09/15 06:49:33;;;;;;;;;;;11.70;99.90;;;;;;4994151;28;19925;-43
2023/09/15 06:51:59;;;;;;;;;;;11.80;99.90;;;;;;4994061;28;19926;-42
2023/09/15 06:54:24;;;;;;;;;;;11.90;99.90;;;;;;4993934;28;19928;-42
2023/09/15 06:56:50;;;;;;;;;;;12.00;99.90;;;;;;4994268;28;19945;-42
2023/09/15 06:59:16;;;;;;;;;;;12.10;99.90;;;;;;4994245;28;20351;-44
2023/09/15 07:01:42;;;;;;;;;;;12.10;99.90;;;;;;4994076;28;19989;-42
2023/09/15 07:04:08;;;;;;;;;;;12.10;99.90;;;;;;4994023;28;19922;-42
2023/09/15 07:06:34;;;;;;;;;;;12.20;99.90;;;;;;4994062;28;19921;-42
2023/09/15 07:08:59;;;;;;;;;;;12.30;99.90;;;;;;5009232;28;19928;-42
2023/09/15 07:11:25;;;;;;;;;;;12.40;99.90;;;;;;4994195;28;19922;-42
2023/09/15 07:13:51;;;;;;;;;;;12.40;99.90;;;;;;4994058;28;19922;-42
2023/09/15 07:16:16;;;;;;;;;;;12.50;99.90;;;;;;4994071;28;19975;-42
2023/09/15 07:18:42;;;;;;;;;;;12.50;99.90;;;;;;5011139;28;19921;-42
2023/09/15 07:21:08;;;;;;;;;;;12.60;99.90;;;;;;4997520;28;19921;-42
2023/09/15 07:23:34;;;;;;;;;;;12.60;99.90;;;;;;4997533;28;20020;-42
2023/09/15 07:25:59;;;;;;;;;;;12.70;99.90;;;;;;4997532;28;19957;-42
2023/09/15 07:28:25;;;;;;;;;;;12.80;99.90;;;;;;4997464;28;19921;-43
2023/09/15 07:30:50;;;;;;;;;;;12.90;99.90;;;;;;4997401;28;19976;-42
2023/09/15 07:33:16;;;;;;;;;;;13.00;99.90;;;;;;4997278;28;20286;-43
2023/09/15 07:35:42;;;;;;;;;;;13.00;99.90;;;;;;4997258;28;20000;-42
2023/09/15 07:38:07;;;;;;;;;;;13.10;99.90;;;;;;4979926;28;19922;-42
2023/09/15 07:40:33;;;;;;;;;;;13.10;99.90;;;;;;4997060;28;19929;-43
2023/09/15 07:42:59;;;;;;;;;;;13.20;99.90;;;;;;4997453;28;19925;-42
2023/09/15 07:45:25;;;;;;;;;;;13.30;99.90;;;;;;4997154;28;19926;-42
2023/09/15 07:47:50;;;;;;;;;;;13.30;99.90;;;;;;4996926;28;19983;-42
2023/09/15 07:50:20;;;;;;;;;;;13.40;99.90;;;;;;4996957;28;19922;-42
2023/09/15 07:52:46;;;;;;;;;;;13.40;99.90;;;;;;5012339;28;19922;-42
2023/09/15 07:55:12;;;;;;;;;;;13.40;99.90;;;;;;4996812;28;20365;-42
2023/09/15 07:57:38;;;;;;;;;;;13.50;99.90;;;;;;4996926;28;19921;-42
2023/09/15 08:00:10;;;;;;;;;;;13.50;99.90;;;;;;4996926;28;19922;-42
2023/09/15 08:02:36;;;;;;;;;;;13.50;99.90;;;;;;4996727;28;19968;-42
2023/09/15 08:05:02;;;;;;;;;;;13.60;99.90;;;;;;4996567;28;19968;-42
2023/09/15 08:07:28;;;;;;;;;;;13.60;99.90;;;;;;4996826;28;20338;-42
2023/09/15 08:09:56;;;;;;;;;;;13.70;99.90;;;;;;4994592;28;19926;-42
2023/09/15 08:12:22;;;;;;;;;;;13.70;99.90;;;;;;4996877;28;20290;-42
2023/09/15 08:14:49;;;;;;;;;;;13.80;99.90;;;;;;4996574;28;19929;-42
2023/09/15 08:17:15;;;;;;;;;;;13.80;99.90;;;;;;4996408;28;19922;-42
2023/09/15 08:19:40;;;;;;;;;;;13.90;99.90;;;;;;4996319;28;19968;-43
2023/09/15 08:22:06;;;;;;;;;;;13.90;99.90;;;;;;4996250;28;19968;-42
2023/09/15 08:24:32;;;;;;;;;;;14.00;99.90;;;;;;4996997;28;19922;-42
2023/09/15 08:26:57;;;;;;;;;;;14.00;99.90;;;;;;5011790;28;19922;-42
2023/09/15 08:29:23;;;;;;;;;;;14.10;99.90;;;;;;4995696;28;19921;-42
2023/09/15 08:31:48;;;;;;;;;;;14.10;99.90;;;;;;4996148;28;19926;-42
2023/09/15 08:34:14;;;;;;;;;;;14.20;99.90;;;;;;4996060;28;19976;-42
2023/09/15 08:36:40;;;;;;;;;;;14.20;99.90;;;;;;4996241;28;20394;-43
2023/09/15 08:39:05;;;;;;;;;;;14.30;99.90;;;;;;4996309;28;19922;-42
2023/09/15 08:41:34;;;;;;;;;;;14.40;99.90;;;;;;4996285;28;20371;-42
2023/09/15 08:43:59;;;;;;;;;;;14.40;99.90;;;;;;4996129;28;19925;-42
2023/09/15 08:46:26;;;;;;;;;;;14.50;99.90;;;;;;4995953;28;19928;-43
2023/09/15 08:48:55;;;;;;;;;;;14.50;99.90;;;;;;4995796;28;19921;-43
2023/09/15 08:51:21;;;;;;;;;;;14.60;99.90;;;;;;4996030;28;19929;-43
2023/09/15 08:53:47;;;;;;;;;;;14.60;99.90;;;;;;4995605;28;20391;-43
2023/09/15 08:56:14;;;;;;;;;;;14.70;99.90;;;;;;4995712;28;19922;-42
2023/09/15 08:58:40;;;;;;;;;;;14.80;99.90;;;;;;4995962;28;19969;-42
2023/09/15 09:01:07;;;;;;;;;;;14.80;99.90;;;;;;4978629;28;19925;-42
2023/09/15 09:03:36;;;;;;;;;;;14.80;99.90;;;;;;4995495;28;19926;-43
2023/09/15 09:06:03;;;;;;;;;;;14.90;99.90;;;;;;4995666;28;19975;-42
2023/09/15 09:08:29;;;;;;;;;;;14.90;99.90;;;;;;4995599;28;19932;-43
2023/09/15 09:10:55;;;;;;;;;;;15.00;99.90;;;;;;4991317;28;20005;-42
2023/09/15 09:13:22;;;;;;;;;;;15.00;99.90;;;;;;4995468;28;19946;-43
2023/09/15 09:15:49;;;;;;;;;;;15.10;99.90;;;;;;4995269;28;19945;-43
2023/09/15 09:18:15;;;;;;;;;;;15.10;99.90;;;;;;4995363;28;19922;-43
2023/09/15 09:20:40;;;;;;;;;;;15.20;99.90;;;;;;4995425;28;19929;-43
2023/09/15 09:23:06;;;;;;;;;;;15.30;99.90;;;;;;5010696;28;19945;-43
2023/09/15 09:25:33;;;;;;;;;;;15.30;99.90;;;;;;4995265;28;20286;-43
2023/09/15 09:28:00;;;;;;;;;;;15.40;99.90;;;;;;4995317;28;19926;-42
2023/09/15 09:30:31;;;;;;;;;;;15.50;99.90;;;;;;4995188;28;19965;-43
2023/09/15 09:33:00;;;;;;;;;;;15.50;99.90;;;;;;4995153;28;19976;-42
2023/09/15 09:35:26;;;;;;;;;;;15.60;99.90;;;;;;4995058;28;19922;-42
2023/09/15 09:37:52;;;;;;;;;;;15.70;99.90;;;;;;4994929;28;20017;-43
2023/09/15 09:40:20;;;;;;;;;;;15.80;99.90;;;;;;4995235;28;19929;-43
2023/09/15 09:42:45;;;;;;;;;;;15.80;99.90;;;;;;4994949;28;20301;-43
2023/09/15 09:45:11;;;;;;;;;;;15.90;99.90;;;;;;4994753;28;19922;-43
2023/09/15 09:47:37;;;;;;;;;;;16.00;99.90;;;;;;4995637;28;19968;-42
2023/09/15 09:50:06;;;;;;;;;;;16.00;99.90;;;;;;4994843;28;20360;-44
2023/09/15 09:52:33;;;;;;;;;;;16.10;99.90;;;;;;4994943;28;19961;-42
2023/09/15 09:55:05;;;;;;;;;;;16.10;99.90;;;;;;4994647;28;20008;-42
2023/09/15 09:57:32;;;;;;;;;;;16.20;99.90;;;;;;4994638;28;20374;-43
2023/09/15 09:59:58;;;;;;;;;;;16.30;99.90;;;;;;4994603;28;20020;-42
2023/09/15 10:02:23;;;;;;;;;;;16.40;99.90;;;;;;4994791;28;20080;-44
2023/09/15 10:04:49;;;;;;;;;;;16.50;99.90;;;;;;4994729;28;19996;-43
2023/09/15 10:07:15;;;;;;;;;;;16.60;99.90;;;;;;4994699;28;19928;-43
2023/09/15 10:09:41;;;;;;;;;;;16.70;99.90;;;;;;4994525;28;19922;-43
2023/09/15 10:12:07;;;;;;;;;;;16.80;99.90;;;;;;4992072;28;19921;-43
2023/09/15 10:14:33;;;;;;;;;;;16.90;99.90;;;;;;4994486;28;19929;-42
2023/09/15 10:17:00;;;;;;;;;;;17.00;99.90;;;;;;5009964;28;19976;-42
2023/09/15 10:19:26;;;;;;;;;;;17.10;99.90;;;;;;4977267;28;19922;-42
2023/09/15 10:21:51;;;;;;;;;;;17.20;99.90;;;;;;4994527;28;19922;-42
2023/09/15 10:24:17;;;;;;;;;;;17.40;99.90;;;;;;4994565;28;19921;-42
2023/09/15 10:26:43;;;;;;;;;;;17.50;99.90;;;;;;5009833;28;20280;-43
2023/09/15 10:29:12;;;;;;;;;;;17.60;99.90;;;;;;4994358;28;19921;-43
2023/09/15 10:31:42;;;;;;;;;;;17.70;99.90;;;;;;4994557;28;20292;-43
2023/09/15 10:34:07;;;;;;;;;;;17.80;99.90;;;;;;4977126;28;19929;-43
2023/09/15 10:36:33;;;;;;;;;;;17.90;99.90;;;;;;4994400;28;19921;-43
2023/09/15 10:39:13;;;;;;;;;;;18.00;99.90;;;;;;4994543;28;19932;-43
2023/09/15 10:41:38;;;;;;;;;;;18.10;99.90;;;;;;4994208;28;19921;-43
2023/09/15 10:44:04;;;;;;;;;;;18.30;99.90;;;;;;4994144;28;20454;-42
2023/09/15 10:46:34;;;;;;;;;;;18.40;99.90;;;;;;4994363;28;20024;-43
2023/09/15 10:49:00;;;;;;;;;;;18.50;99.90;;;;;;4994389;28;19972;-42
2023/09/15 10:51:25;;;;;;;;;;;18.60;99.90;;;;;;4994204;28;19925;-44
2023/09/15 10:53:56;;;;;;;;;;;18.70;99.90;;;;;;4996068;28;19922;-43
2023/09/15 10:56:21;;;;;;;;;;;18.80;99.90;;;;;;4980884;28;19922;-43
2023/09/15 10:58:47;;;;;;;;;;;19.00;99.90;;;;;;4998193;28;20008;-42
2023/09/15 11:01:13;;;;;;;;;;;19.10;99.90;;;;;;4998242;28;19922;-43
2023/09/15 11:03:39;;;;;;;;;;;19.20;99.90;;;;;;4997864;28;19972;-44
2023/09/15 11:06:08;;;;;;;;;;;19.30;99.90;;;;;;4997822;28;19926;-43
2023/09/15 11:08:34;;;;;;;;;;;19.40;99.90;;;;;;4980556;28;19973;-44
2023/09/15 11:11:04;;;;;;;;;;;19.50;99.90;;;;;;4995347;28;19988;-42
2023/09/15 11:13:31;;;;;;;;;;;19.60;99.90;;;;;;4997704;28;20354;-42
2023/09/15 11:15:56;;;;;;;;;;;19.70;99.90;;;;;;4997775;28;19972;-43
2023/09/15 11:18:22;;;;;;;;;;;19.80;99.90;;;;;;4997601;28;19976;-43
2023/09/15 11:20:48;;;;;;;;;;;19.90;99.90;;;;;;4997450;28;19965;-42
2023/09/15 11:23:19;;;;;;;;;;;19.90;99.90;;;;;;5012952;28;19968;-43
2023/09/15 11:25:45;;;;;;;;;;;19.90;99.90;;;;;;4997608;28;20348;-43
2023/09/15 11:28:12;;;;;;;;;;;20.00;99.90;;;;;;4980053;28;19967;-43
2023/09/15 11:30:38;;;;;;;;;;;20.10;99.90;;;;;;4997367;28;19921;-43
2023/09/15 11:33:07;;;;;;;;;;;20.20;99.90;;;;;;4979953;28;19929;-43
2023/09/15 11:35:33;;;;;;;;;;;20.20;99.90;;;;;;4997353;28;20008;-43
2023/09/15 11:37:59;;;;;;;;;;;20.30;99.90;;;;;;4980078;28;20016;-43
2023/09/15 11:40:24;;;;;;;;;;;20.40;99.90;;;;;;4997333;28;20021;-43
2023/09/15 11:42:54;;;;;;;;;;;20.50;99.90;;;;;;4997461;28;19928;-43
2023/09/15 11:45:20;;;;;;;;;;;20.50;99.90;;;;;;4997197;28;19933;-43
2023/09/15 11:47:45;;;;;;;;;;;20.60;99.90;;;;;;4997158;28;20367;-43
2023/09/15 11:50:12;;;;;;;;;;;20.60;99.90;;;;;;4979704;28;19928;-43
2023/09/15 11:52:38;;;;;;;;;;;20.60;99.90;;;;;;4997050;28;19976;-43
2023/09/15 11:55:04;;;;;;;;;;;20.70;99.90;;;;;;4979808;28;19926;-43
2023/09/15 11:57:30;;;;;;;;;;;20.70;99.90;;;;;;4979936;28;19928;-44
2023/09/15 11:59:55;;;;;;;;;;;20.80;99.90;;;;;;4997071;28;19921;-42
2023/09/15 12:02:21;;;;;;;;;;;20.90;99.90;;;;;;5011997;28;19968;-42
2023/09/15 12:04:47;;;;;;;;;;;21.00;99.90;;;;;;4995538;28;20293;-42
2023/09/15 12:07:12;;;;;;;;;;;21.00;99.90;;;;;;4979529;28;19921;-43
2023/09/15 12:09:38;;;;;;;;;;;21.10;99.90;;;;;;4996747;28;19976;-42
2023/09/15 12:12:04;;;;;;;;;;;21.20;99.90;;;;;;4996625;28;19930;-43
2023/09/15 12:14:30;;;;;;;;;;;21.20;99.90;;;;;;4996747;28;19926;-43
2023/09/15 12:16:57;;;;;;;;;;;21.20;99.90;;;;;;4996729;28;19922;-43
2023/09/15 12:19:22;;;;;;;;;;;21.10;99.90;;;;;;4979363;28;19922;-43
2023/09/15 12:21:55;;;;;;;;;;;21.10;99.90;;;;;;4979206;28;19929;-43
2023/09/15 12:24:21;;;;;;;;;;;21.10;99.90;;;;;;4996523;28;19929;-43
2023/09/15 12:26:47;;;;;;;;;;;21.00;99.90;;;;;;4979404;28;20397;-43
2023/09/15 12:29:14;;;;;;;;;;;21.00;99.90;;;;;;4996428;28;19922;-43
2023/09/15 12:31:47;;;;;;;;;;;21.10;99.90;;;;;;4996355;28;19921;-43
2023/09/15 12:34:22;;;;;;;;;;;21.10;99.90;;;;;;4996204;28;19922;-43
2023/09/15 12:36:48;;;;;;;;;;;21.10;99.90;;;;;;4996360;28;19928;-43
2023/09/15 12:39:14;;;;;;;;;;;21.20;99.90;;;;;;4979226;28;20367;-43
2023/09/15 12:41:39;;;;;;;;;;;21.20;99.90;;;;;;4996028;28;19972;-43
2023/09/15 12:44:05;;;;;;;;;;;21.10;99.90;;;;;;4995964;28;19925;-43
2023/09/15 12:46:32;;;;;;;;;;;21.10;99.90;;;;;;4995978;28;19921;-44
2023/09/15 12:48:57;;;;;;;;;;;21.10;99.90;;;;;;4995769;28;19984;-43
2023/09/15 12:51:23;;;;;;;;;;;21.10;99.90;;;;;;4995982;28;20356;-43
2023/09/15 12:53:48;;;;;;;;;;;21.10;99.90;;;;;;4995894;28;20274;-43
2023/09/15 12:56:14;;;;;;;;;;;21.10;99.90;;;;;;4995987;28;19928;-45
2023/09/15 12:58:39;;;;;;;;;;;21.10;99.90;;;;;;4995705;28;19922;-43
2023/09/15 13:01:05;;;;;;;;;;;21.00;99.90;;;;;;4995969;28;19969;-45
2023/09/15 13:03:30;;;;;;;;;;;21.00;99.90;;;;;;4995459;28;19964;-44
2023/09/15 13:05:56;;;;;;;;;;;20.90;99.90;;;;;;4995713;28;19922;-43
2023/09/15 13:08:21;;;;;;;;;;;20.80;99.90;;;;;;4996017;28;20331;-44
2023/09/15 13:10:47;;;;;;;;;;;20.80;99.90;;;;;;4993758;28;19922;-44
2023/09/15 13:13:14;;;;;;;;;;;20.70;99.90;;;;;;4995405;28;19926;-43
2023/09/15 13:15:40;;;;;;;;;;;20.60;99.90;;;;;;4995065;28;20291;-44
2023/09/15 13:18:06;;;;;;;;;;;20.60;99.90;;;;;;4995266;28;19926;-44
2023/09/15 13:20:32;;;;;;;;;;;20.50;99.90;;;;;;4995414;28;19933;-43
2023/09/15 13:22:57;;;;;;;;;;;20.40;99.90;;;;;;4995353;28;19922;-43
2023/09/15 13:25:23;;;;;;;;;;;20.40;99.90;;;;;;4995237;28;19921;-43
2023/09/15 13:27:49;;;;;;;;;;;20.30;99.90;;;;;;4995283;28;19926;-43
2023/09/15 13:30:14;;;;;;;;;;;20.30;99.90;;;;;;4995310;28;19921;-43
2023/09/15 13:32:40;;;;;;;;;;;20.20;99.90;;;;;;4994824;28;20326;-43
2023/09/15 13:35:07;;;;;;;;;;;20.20;99.90;;;;;;4995192;28;19926;-42
2023/09/15 13:37:32;;;;;;;;;;;20.30;99.90;;;;;;4995153;28;19922;-43
2023/09/15 13:39:58;;;;;;;;;;;20.40;99.90;;;;;;4995033;28;19968;-43
2023/09/15 13:42:34;;;;;;;;;;;20.40;99.90;;;;;;4994947;28;19928;-43
2023/09/15 13:45:00;;;;;;;;;;;20.40;99.90;;;;;;4994960;28;19931;-43
2023/09/15 13:47:28;;;;;;;;;;;20.50;99.90;;;;;;4994798;28;19922;-43
2023/09/15 13:49:53;;;;;;;;;;;20.50;99.90;;;;;;4995180;28;19926;-43
2023/09/15 13:52:20;;;;;;;;;;;20.50;99.90;;;;;;4994953;28;20272;-43
2023/09/15 13:54:46;;;;;;;;;;;20.50;99.90;;;;;;4994899;28;19936;-43
2023/09/15 13:57:11;;;;;;;;;;;20.60;99.90;;;;;;4994800;28;19922;-43
2023/09/15 13:59:37;;;;;;;;;;;20.60;99.90;;;;;;4977584;28;20322;-43
2023/09/15 14:02:02;;;;;;;;;;;20.60;99.90;;;;;;4994635;28;20279;-43
2023/09/15 14:04:28;;;;;;;;;;;20.70;99.90;;;;;;4994762;28;19969;-43
2023/09/15 14:06:53;;;;;;;;;;;20.70;99.90;;;;;;4994722;28;20477;-43
2023/09/15 14:09:19;;;;;;;;;;;20.70;99.90;;;;;;4994582;28;19930;-43
2023/09/15 14:11:45;;;;;;;;;;;20.70;99.90;;;;;;4994913;28;19921;-43